Time;durP1;ratioP1;P1;durP2;ratioP2;P2;SDS_P1;SDS_P2;PMS_P1;PMS_P2;Temp;Humidity;BMP_temperature;BMP_pressure;BME280_temperature;BME280_humidity;BME280_pressure;Samples;Min_cycle;Max_cycle;Signal;HPM_P1;HPM_P2
2023/03/22 00:02:25;;;;;;;3.55;2.00;;;;;;;;;;4922233;29;20552;-64
2023/03/22 00:04:55;;;;;;;9.05;2.50;;;;;;;;;;4913328;29;20394;-63
2023/03/22 00:07:25;;;;;;;9.80;2.55;;;;;;;;;;4913227;29;20060;-63
2023/03/22 00:09:55;;;;;;;7.28;2.28;;;;;;;;;;4913153;29;20063;-64
2023/03/22 00:12:25;;;;;;;4.47;2.20;;;;;;;;;;4922257;29;20067;-64
2023/03/22 00:14:55;;;;;;;7.88;2.03;;;;;;;;;;4931796;29;20060;-63
2023/03/22 00:17:26;;;;;;;15.13;2.75;;;;;;;;;;4932047;29;20071;-64
2023/03/22 00:19:57;;;;;;;4.47;2.20;;;;;;;;;;4950957;28;20051;-64
2023/03/22 00:22:27;;;;;;;7.22;1.95;;;;;;;;;;4950885;28;20086;-64
2023/03/22 00:24:56;;;;;;;7.40;2.28;;;;;;;;;;4934858;29;20055;-64
2023/03/22 00:27:26;;;;;;;5.40;2.10;;;;;;;;;;4960084;28;20059;-64
2023/03/22 00:29:56;;;;;;;6.50;2.38;;;;;;;;;;4972814;28;20082;-64
2023/03/22 00:32:27;;;;;;;4.60;2.53;;;;;;;;;;4992740;28;20053;-64
2023/03/22 00:34:56;;;;;;;6.65;2.47;;;;;;;;;;5009289;28;20457;-63
2023/03/22 00:37:33;;;;;;;4.28;2.00;;;;;;;;;;4979211;28;20054;-64
2023/03/22 00:40:07;;;;;;;3.63;1.88;;;;;;;;;;4957557;28;20569;-64
2023/03/22 00:42:39;;;;;;;4.93;2.17;;;;;;;;;;4989668;28;20058;-64
2023/03/22 00:45:12;;;;;;;6.50;2.17;;;;;;;;;;4989502;28;20050;-65
2023/03/22 00:47:41;;;;;;;3.95;2.20;;;;;;;;;;4974184;28;20055;-65
2023/03/22 00:50:11;;;;;;;5.63;2.35;;;;;;;;;;4993395;28;20050;-65
2023/03/22 00:52:41;;;;;;;7.72;2.42;;;;;;;;;;4993185;28;20062;-65
2023/03/22 00:55:11;;;;;;;8.63;2.10;;;;;;;;;;4993346;28;20058;-64
2023/03/22 00:57:41;;;;;;;5.40;2.38;;;;;;;;;;4979965;28;20049;-64
2023/03/22 01:00:14;;;;;;;6.68;2.45;;;;;;;;;;4973489;28;20063;-65
2023/03/22 01:02:45;;;;;;;5.80;2.30;;;;;;;;;;4977428;28;20043;-65
2023/03/22 01:05:20;;;;;;;9.98;2.42;;;;;;;;;;4943584;29;20040;-67
2023/03/22 01:07:54;;;;;;;5.13;2.67;;;;;;;;;;4930818;29;20055;-65
2023/03/22 01:10:24;;;;;;;6.75;2.20;;;;;;;;;;4884650;29;20044;-65
2023/03/22 01:12:55;;;;;;;4.63;2.63;;;;;;;;;;4884445;29;20051;-65
2023/03/22 01:15:25;;;;;;;7.55;2.30;;;;;;;;;;4933668;29;20047;-65
2023/03/22 01:17:55;;;;;;;8.43;2.25;;;;;;;;;;4944517;29;20060;-66
2023/03/22 01:20:27;;;;;;;4.78;2.40;;;;;;;;;;4944218;29;20047;-67
2023/03/22 01:22:57;;;;;;;6.30;2.53;;;;;;;;;;4925609;29;20428;-67
2023/03/22 01:25:27;;;;;;;6.22;2.40;;;;;;;;;;4913027;29;20052;-66
2023/03/22 01:27:57;;;;;;;5.65;2.67;;;;;;;;;;4924017;29;20048;-65
2023/03/22 01:30:27;;;;;;;5.85;2.53;;;;;;;;;;4900697;29;20059;-65
2023/03/22 01:32:56;;;;;;;7.53;2.50;;;;;;;;;;4890726;29;20056;-65
2023/03/22 01:35:26;;;;;;;7.22;2.42;;;;;;;;;;4915665;29;20063;-65
2023/03/22 01:37:56;;;;;;;11.38;2.67;;;;;;;;;;4896285;29;20053;-65
2023/03/22 01:40:26;;;;;;;11.40;3.15;;;;;;;;;;4868307;29;20061;-65
2023/03/22 01:42:57;;;;;;;8.48;2.80;;;;;;;;;;4868961;29;20050;-64
2023/03/22 01:45:37;;;;;;;4.90;2.83;;;;;;;;;;4862480;29;20508;-65
2023/03/22 01:48:11;;;;;;;5.95;2.30;;;;;;;;;;4874262;29;20057;-65
2023/03/22 01:50:45;;;;;;;5.80;2.40;;;;;;;;;;4877737;29;20049;-65
2023/03/22 01:53:17;;;;;;;7.85;2.42;;;;;;;;;;4903305;29;20126;-65
2023/03/22 01:55:48;;;;;;;4.45;2.60;;;;;;;;;;4896280;29;20052;-65
2023/03/22 01:58:25;;;;;;;6.57;2.50;;;;;;;;;;4895856;29;20394;-65
2023/03/22 02:00:59;;;;;;;5.75;2.80;;;;;;;;;;4877130;29;20051;-65
2023/03/22 02:04:15;;;;;;;8.50;2.25;;;;;;;;;;4830261;29;20062;-65
2023/03/22 02:06:46;;;;;;;7.00;2.30;;;;;;;;;;4752416;29;20458;-65
2023/03/22 02:09:20;;;;;;;9.32;2.60;;;;;;;;;;4768369;30;20072;-65
2023/03/22 02:12:25;;;;;;;6.45;2.40;;;;;;;;;;4785815;30;20560;-66
2023/03/22 02:15:30;;;;;;;6.53;2.67;;;;;;;;;;4770907;30;20065;-65
2023/03/22 02:18:43;;;;;;;4.55;2.10;;;;;;;;;;4745292;30;20063;-65
2023/03/22 02:21:35;;;;;;;5.88;2.35;;;;;;;;;;4717587;30;20137;-65
2023/03/22 02:24:57;;;;;;;8.75;2.72;;;;;;;;;;4749848;30;20048;-65
2023/03/22 02:28:00;;;;;;;;;;;;;;;;;;4741358;30;20065;-65
2023/03/22 02:30:45;;;;;;;5.47;2.08;;;;;;;;;;4755188;30;20645;-65
2023/03/22 02:33:44;;;;;;;6.65;2.42;;;;;;;;;;4767686;29;20060;-65
2023/03/22 02:36:46;;;;;;;7.25;2.40;;;;;;;;;;4764750;30;20071;-65
2023/03/22 02:40:06;;;;;;;10.52;2.33;;;;;;;;;;4788801;29;20531;-66
2023/03/22 02:42:49;;;;;;;5.40;3.30;;;;;;;;;;4785626;30;20066;-65
2023/03/22 02:45:38;;;;;;;8.50;2.42;;;;;;;;;;4764639;30;20063;-65
2023/03/22 02:48:17;;;;;;;10.18;2.30;;;;;;;;;;4764859;30;20060;-65
2023/03/22 02:50:48;;;;;;;5.22;2.22;;;;;;;;;;4769256;29;20063;-65
2023/03/22 02:53:47;;;;;;;5.88;2.45;;;;;;;;;;4762972;30;20075;-65
2023/03/22 02:56:57;;;;;;;6.20;2.42;;;;;;;;;;4750970;30;20067;-65
2023/03/22 02:59:42;;;;;;;7.00;2.20;;;;;;;;;;4777118;30;20202;-65
2023/03/22 03:02:27;;;;;;;9.23;2.30;;;;;;;;;;4785389;30;20071;-65
2023/03/22 03:05:12;;;;;;;5.85;2.60;;;;;;;;;;4785482;30;20790;-65
2023/03/22 03:08:00;;;;;;;5.05;2.30;;;;;;;;;;4761637;29;20068;-65
2023/03/22 03:10:32;;;;;;;7.20;2.20;;;;;;;;;;4770551;29;20521;-65
2023/03/22 03:13:02;;;;;;;6.00;2.53;;;;;;;;;;4770719;30;20516;-65
2023/03/22 03:15:32;;;;;;;6.80;2.30;;;;;;;;;;4775673;29;20210;-65
2023/03/22 03:18:25;;;;;;;4.07;1.83;;;;;;;;;;4802719;29;20061;-65
2023/03/22 03:21:08;;;;;;;8.07;2.25;;;;;;;;;;4894793;29;20053;-66
2023/03/22 03:23:59;;;;;;;5.13;2.17;;;;;;;;;;4895125;29;20056;-65
2023/03/22 03:27:01;;;;;;;5.38;2.25;;;;;;;;;;4895090;29;20429;-65
2023/03/22 03:29:58;;;;;;;6.68;2.45;;;;;;;;;;4894190;29;20095;-65
2023/03/22 03:32:36;;;;;;;6.28;2.33;;;;;;;;;;4875827;29;20057;-65
2023/03/22 03:35:26;;;;;;;8.65;2.20;;;;;;;;;;4894806;29;20048;-66
2023/03/22 03:38:17;;;;;;;7.15;2.60;;;;;;;;;;4909792;29;20056;-65
2023/03/22 03:40:53;;;;;;;5.63;2.40;;;;;;;;;;4913149;29;20052;-65
2023/03/22 03:43:24;;;;;;;4.57;2.20;;;;;;;;;;4916562;29;20504;-65
2023/03/22 03:45:55;;;;;;;7.15;2.50;;;;;;;;;;4875624;29;20053;-65
2023/03/22 03:48:32;;;;;;;5.47;2.17;;;;;;;;;;4875827;29;20056;-65
2023/03/22 03:51:03;;;;;;;3.85;2.10;;;;;;;;;;4894246;29;20501;-65
2023/03/22 03:53:33;;;;;;;11.82;2.28;;;;;;;;;;4909334;29;20050;-65
2023/03/22 03:56:03;;;;;;;5.03;2.25;;;;;;;;;;4859923;29;20053;-65
2023/03/22 03:58:38;;;;;;;7.80;2.15;;;;;;;;;;4893879;29;20059;-65
2023/03/22 04:01:09;;;;;;;8.52;2.60;;;;;;;;;;4894230;29;20056;-65
2023/03/22 04:03:54;;;;;;;7.57;2.35;;;;;;;;;;4863907;29;20060;-65
2023/03/22 04:06:46;;;;;;;5.63;2.25;;;;;;;;;;4796254;29;20445;-65
2023/03/22 04:09:22;;;;;;;8.68;2.30;;;;;;;;;;4784212;29;20060;-65
2023/03/22 04:11:57;;;;;;;4.63;2.10;;;;;;;;;;4801952;29;20059;-65
2023/03/22 04:14:28;;;;;;;4.85;2.05;;;;;;;;;;4802721;29;20055;-65
2023/03/22 04:17:03;;;;;;;5.20;2.00;;;;;;;;;;4838281;29;20058;-65
2023/03/22 04:19:33;;;;;;;7.32;2.30;;;;;;;;;;4838370;29;20062;-65
2023/03/22 04:22:03;;;;;;;7.20;2.30;;;;;;;;;;4819982;29;20062;-65
2023/03/22 04:24:36;;;;;;;6.10;2.55;;;;;;;;;;4860431;29;20093;-65
2023/03/22 04:27:08;;;;;;;9.98;2.70;;;;;;;;;;4894027;29;20516;-65
2023/03/22 04:30:21;;;;;;;5.97;2.22;;;;;;;;;;4875246;29;20049;-65
2023/03/22 04:33:10;;;;;;;5.45;2.78;;;;;;;;;;4870611;29;20053;-65
2023/03/22 04:36:14;;;;;;;5.43;2.13;;;;;;;;;;4838183;29;20065;-66
2023/03/22 04:39:00;;;;;;;5.93;2.85;;;;;;;;;;4885696;29;20386;-65
2023/03/22 04:41:30;;;;;;;5.55;2.10;;;;;;;;;;4878887;29;20060;-65
2023/03/22 04:44:03;;;;;;;5.45;2.30;;;;;;;;;;4905525;29;20051;-65
2023/03/22 04:46:36;;;;;;;6.45;2.13;;;;;;;;;;4912515;29;20056;-65
2023/03/22 04:49:07;;;;;;;6.22;1.92;;;;;;;;;;4862271;29;20533;-65
2023/03/22 04:51:40;;;;;;;12.48;2.33;;;;;;;;;;4893583;29;20055;-66
2023/03/22 04:54:30;;;;;;;11.63;2.75;;;;;;;;;;4880943;29;20454;-65
2023/03/22 04:57:00;;;;;;;6.35;2.92;;;;;;;;;;4856221;29;20430;-67
2023/03/22 04:59:36;;;;;;;3.40;2.00;;;;;;;;;;4831448;29;20053;-65
2023/03/22 05:02:06;;;;;;;6.15;2.20;;;;;;;;;;4899134;29;20057;-65
2023/03/22 05:04:42;;;;;;;6.63;2.35;;;;;;;;;;4882927;29;20081;-65
2023/03/22 05:07:50;;;;;;;4.03;2.13;;;;;;;;;;4862407;29;20060;-65
2023/03/22 05:10:20;;;;;;;7.85;2.88;;;;;;;;;;4845868;29;20409;-66
2023/03/22 05:12:50;;;;;;;7.85;2.25;;;;;;;;;;4819795;29;20066;-65
2023/03/22 05:15:32;;;;;;;5.97;2.55;;;;;;;;;;4819554;29;20050;-66
2023/03/22 05:18:04;;;;;;;9.43;2.72;;;;;;;;;;4837991;29;20576;-66
2023/03/22 05:20:35;;;;;;;5.65;2.55;;;;;;;;;;4819334;29;20057;-65
2023/03/22 05:23:18;;;;;;;5.05;2.08;;;;;;;;;;4856342;29;20178;-65
2023/03/22 05:25:53;;;;;;;3.83;2.22;;;;;;;;;;4854099;29;20524;-65
2023/03/22 05:28:26;;;;;;;5.72;2.10;;;;;;;;;;4809347;29;20058;-65
2023/03/22 05:31:07;;;;;;;5.25;2.20;;;;;;;;;;4821416;29;20214;-67
2023/03/22 05:33:53;;;;;;;7.03;2.35;;;;;;;;;;4852941;29;20058;-66
2023/03/22 05:36:28;;;;;;;4.65;2.70;;;;;;;;;;4818786;29;20055;-65
2023/03/22 05:39:33;;;;;;;6.38;2.33;;;;;;;;;;4845336;29;20054;-65
2023/03/22 05:42:03;;;;;;;6.50;2.58;;;;;;;;;;4845719;29;20075;-65
2023/03/22 05:44:36;;;;;;;5.15;2.15;;;;;;;;;;4840897;29;20058;-65
2023/03/22 05:47:10;;;;;;;5.63;2.38;;;;;;;;;;4834586;29;20054;-65
2023/03/22 05:50:12;;;;;;;5.93;2.42;;;;;;;;;;4841276;29;20058;-65
2023/03/22 05:52:43;;;;;;;7.38;2.15;;;;;;;;;;4842584;29;20054;-65
2023/03/22 05:55:45;;;;;;;9.23;2.40;;;;;;;;;;4868642;29;20061;-65
2023/03/22 05:58:17;;;;;;;12.13;2.25;;;;;;;;;;4858929;29;20066;-65
2023/03/22 06:00:51;;;;;;;3.50;1.98;;;;;;;;;;4840326;29;20080;-65
2023/03/22 06:03:22;;;;;;;6.13;2.28;;;;;;;;;;4841273;29;20061;-66
2023/03/22 06:05:58;;;;;;;4.25;2.13;;;;;;;;;;4826957;29;20061;-65
2023/03/22 06:08:43;;;;;;;6.55;2.13;;;;;;;;;;4822115;29;20061;-65
2023/03/22 06:11:14;;;;;;;4.43;2.40;;;;;;;;;;4840302;29;20068;-65
2023/03/22 06:13:45;;;;;;;6.25;2.55;;;;;;;;;;4833958;29;20070;-65
2023/03/22 06:16:17;;;;;;;8.27;2.50;;;;;;;;;;4821810;29;20058;-67
2023/03/22 06:18:47;;;;;;;5.05;2.83;;;;;;;;;;4819989;29;20396;-66
2023/03/22 06:21:18;;;;;;;8.02;2.50;;;;;;;;;;4803969;29;20063;-65
2023/03/22 06:23:48;;;;;;;10.95;2.17;;;;;;;;;;4802772;29;20540;-65
2023/03/22 06:26:19;;;;;;;8.07;2.13;;;;;;;;;;4785453;29;20074;-65
2023/03/22 06:28:49;;;;;;;4.80;2.20;;;;;;;;;;4800666;29;20055;-65
2023/03/22 06:31:20;;;;;;;6.82;2.47;;;;;;;;;;4797923;29;20058;-65
2023/03/22 06:33:56;;;;;;;7.90;2.13;;;;;;;;;;4807493;29;20054;-65
2023/03/22 06:36:33;;;;;;;6.25;2.15;;;;;;;;;;4804348;29;20082;-65
2023/03/22 06:39:10;;;;;;;4.47;2.42;;;;;;;;;;4748082;30;20051;-66
2023/03/22 06:41:44;;;;;;;4.97;2.28;;;;;;;;;;4803528;29;20058;-65
2023/03/22 06:44:14;;;;;;;11.57;2.03;;;;;;;;;;4816694;29;20519;-65
2023/03/22 06:46:50;;;;;;;4.68;2.20;;;;;;;;;;4843806;29;20053;-65
2023/03/22 06:49:43;;;;;;;7.53;2.53;;;;;;;;;;4842588;29;20641;-66
2023/03/22 06:52:25;;;;;;;3.90;2.10;;;;;;;;;;4839428;29;20061;-66
2023/03/22 06:54:57;;;;;;;9.00;2.47;;;;;;;;;;4839247;29;20057;-65
2023/03/22 06:57:27;;;;;;;9.65;2.30;;;;;;;;;;4804750;29;20070;-66
2023/03/22 06:59:57;;;;;;;9.13;2.42;;;;;;;;;;4821169;29;20057;-67
2023/03/22 07:02:26;;;;;;;4.25;2.03;;;;;;;;;;4805186;29;20051;-65
2023/03/22 07:05:16;;;;;;;4.35;2.13;;;;;;;;;;4793111;29;20500;-65
2023/03/22 07:07:46;;;;;;;7.88;2.22;;;;;;;;;;4749364;30;20462;-66
2023/03/22 07:10:17;;;;;;;9.05;2.47;;;;;;;;;;4775417;30;20413;-66
2023/03/22 07:12:47;;;;;;;19.25;2.78;;;;;;;;;;4802865;29;20050;-66
2023/03/22 07:15:22;;;;;;;6.57;2.80;;;;;;;;;;4787436;29;20055;-66
2023/03/22 07:18:02;;;;;;;4.75;2.25;;;;;;;;;;4802907;29;20100;-66
2023/03/22 07:20:37;;;;;;;7.13;2.38;;;;;;;;;;4803350;29;20065;-66
2023/03/22 07:23:09;;;;;;;11.52;2.63;;;;;;;;;;4839039;29;20046;-66
2023/03/22 07:25:50;;;;;;;8.63;2.00;;;;;;;;;;4875755;29;20805;-66
2023/03/22 07:28:27;;;;;;;7.03;2.40;;;;;;;;;;4876001;29;20053;-66
2023/03/22 07:31:06;;;;;;;5.07;2.03;;;;;;;;;;4857557;29;20053;-66
2023/03/22 07:33:47;;;;;;;8.50;2.50;;;;;;;;;;4839606;29;20053;-67
2023/03/22 07:36:22;;;;;;;4.30;2.47;;;;;;;;;;4857093;29;20054;-67
2023/03/22 07:38:53;;;;;;;5.72;2.03;;;;;;;;;;4875614;29;20055;-66
2023/03/22 07:41:33;;;;;;;5.22;2.38;;;;;;;;;;4837759;29;20100;-66
2023/03/22 07:44:29;;;;;;;7.85;3.20;;;;;;;;;;4824349;29;20411;-66
2023/03/22 07:47:25;;;;;;;11.07;2.47;;;;;;;;;;4802590;29;20055;-66
2023/03/22 07:50:31;;;;;;;9.50;2.53;;;;;;;;;;4802912;29;20134;-67
2023/03/22 07:53:05;;;;;;;9.95;2.55;;;;;;;;;;4810583;29;20058;-66
2023/03/22 07:55:36;;;;;;;8.32;2.58;;;;;;;;;;4820316;29;20054;-66
2023/03/22 07:58:06;;;;;;;9.45;2.47;;;;;;;;;;4813221;29;20132;-66
2023/03/22 08:00:36;;;;;;;6.75;2.33;;;;;;;;;;4862826;29;20053;-66
2023/03/22 08:03:26;;;;;;;5.82;2.50;;;;;;;;;;4876292;29;20057;-66
2023/03/22 08:06:06;;;;;;;4.47;2.42;;;;;;;;;;4841208;29;20050;-66
2023/03/22 08:08:38;;;;;;;4.60;2.47;;;;;;;;;;4829511;29;20050;-66
2023/03/22 08:11:08;;;;;;;8.30;2.67;;;;;;;;;;4823715;29;20054;-67
2023/03/22 08:13:38;;;;;;;4.00;2.53;;;;;;;;;;4825383;29;20543;-68
2023/03/22 08:16:10;;;;;;;5.53;2.47;;;;;;;;;;4869223;29;20049;-67
2023/03/22 08:18:40;;;;;;;9.82;2.63;;;;;;;;;;4875374;29;20094;-66
2023/03/22 08:21:13;;;;;;;10.85;2.22;;;;;;;;;;4856747;29;20057;-67
2023/03/22 08:23:44;;;;;;;5.20;2.40;;;;;;;;;;4838288;29;20057;-67
2023/03/22 08:26:48;;;;;;;5.85;2.10;;;;;;;;;;4822197;29;20542;-67
2023/03/22 08:29:32;;;;;;;4.90;2.22;;;;;;;;;;4838248;29;20054;-67
2023/03/22 08:32:03;;;;;;;8.52;2.25;;;;;;;;;;4838108;29;20061;-67
2023/03/22 08:34:37;;;;;;;5.20;2.30;;;;;;;;;;4838406;29;20080;-67
2023/03/22 08:37:08;;;;;;;6.25;2.38;;;;;;;;;;4826226;29;20058;-67
2023/03/22 08:39:40;;;;;;;8.05;2.33;;;;;;;;;;4837881;29;20756;-67
2023/03/22 08:42:31;;;;;;;4.28;2.45;;;;;;;;;;4799361;29;20467;-66
2023/03/22 08:45:02;;;;;;;5.75;2.50;;;;;;;;;;4819275;29;20058;-66
2023/03/22 08:47:35;;;;;;;4.50;2.33;;;;;;;;;;4874870;29;20059;-66
2023/03/22 08:50:09;;;;;;;6.75;2.67;;;;;;;;;;4893599;29;20053;-67
2023/03/22 08:52:47;;;;;;;5.15;2.03;;;;;;;;;;4860465;29;20057;-66
2023/03/22 08:55:38;;;;;;;4.57;2.70;;;;;;;;;;4865105;29;20420;-67
2023/03/22 08:58:11;;;;;;;7.50;2.35;;;;;;;;;;4890171;29;20065;-66
2023/03/22 09:01:06;;;;;;;5.35;2.15;;;;;;;;;;4882755;29;20063;-67
2023/03/22 09:03:50;;;;;;;6.65;2.08;;;;;;;;;;4931519;29;20059;-67
2023/03/22 09:06:20;;;;;;;5.60;2.80;;;;;;;;;;4912363;29;20062;-67
2023/03/22 09:08:51;;;;;;;4.90;2.30;;;;;;;;;;4894556;29;20448;-66
2023/03/22 09:11:23;;;;;;;3.22;1.92;;;;;;;;;;4844200;29;20052;-67
2023/03/22 09:13:53;;;;;;;6.50;2.13;;;;;;;;;;4830801;29;20546;-67
2023/03/22 09:16:23;;;;;;;10.70;2.42;;;;;;;;;;4817930;29;20061;-67
2023/03/22 09:18:53;;;;;;;5.15;2.30;;;;;;;;;;4813170;29;20051;-67
2023/03/22 09:21:23;;;;;;;8.25;2.80;;;;;;;;;;4819428;29;20455;-67
2023/03/22 09:24:05;;;;;;;7.25;3.10;;;;;;;;;;4836588;29;20102;-66
2023/03/22 09:26:45;;;;;;;5.13;2.33;;;;;;;;;;4847492;29;20049;-67
2023/03/22 09:29:18;;;;;;;11.68;2.47;;;;;;;;;;4841338;29;20058;-66
2023/03/22 09:31:48;;;;;;;5.03;2.10;;;;;;;;;;4867996;29;20076;-67
2023/03/22 09:34:22;;;;;;;8.70;2.22;;;;;;;;;;4873589;29;20053;-67
2023/03/22 09:36:54;;;;;;;5.30;2.22;;;;;;;;;;4854708;29;20549;-67
2023/03/22 09:39:30;;;;;;;5.13;2.38;;;;;;;;;;4859210;29;20052;-68
2023/03/22 09:42:32;;;;;;;6.20;2.05;;;;;;;;;;4859029;29;20045;-67
2023/03/22 09:45:11;;;;;;;8.77;2.20;;;;;;;;;;4786278;29;20055;-68
2023/03/22 09:47:49;;;;;;;6.10;2.30;;;;;;;;;;4804395;29;20105;-67
2023/03/22 09:50:27;;;;;;;5.55;2.85;;;;;;;;;;4804584;29;20492;-67
2023/03/22 09:52:59;;;;;;;8.50;3.45;;;;;;;;;;4748560;30;20437;-67
2023/03/22 09:55:58;;;;;;;9.13;2.17;;;;;;;;;;4766576;30;20056;-67
2023/03/22 09:58:49;;;;;;;6.32;2.40;;;;;;;;;;4831855;29;20070;-67
2023/03/22 10:01:37;;;;;;;;;;;;;;;;;;4786510;30;20059;-66
2023/03/22 10:04:39;;;;;;;5.35;2.22;;;;;;;;;;4786220;30;19929;-66
2023/03/22 10:07:32;;;;;;;11.13;2.85;;;;;;;;;;4729873;30;20070;-66
2023/03/22 10:10:05;;;;;;;8.68;2.60;;;;;;;;;;4750670;30;20060;-67
2023/03/22 10:12:40;;;;;;;5.85;2.70;;;;;;;;;;4776020;30;20477;-66
2023/03/22 10:15:18;;;;;;;13.00;2.80;;;;;;;;;;4786199;30;20067;-66
2023/03/22 10:17:52;;;;;;;7.63;2.70;;;;;;;;;;4799663;29;20063;-66
2023/03/22 10:20:41;;;;;;;6.55;2.70;;;;;;;;;;4830915;29;20072;-66
2023/03/22 10:23:17;;;;;;;10.45;3.15;;;;;;;;;;4864237;29;20553;-66
2023/03/22 10:25:47;;;;;;;9.73;2.95;;;;;;;;;;4908849;29;20071;-66
2023/03/22 10:28:28;;;;;;;14.27;3.30;;;;;;;;;;4915057;29;20056;-66
2023/03/22 10:30:58;;;;;;;16.30;3.33;;;;;;;;;;4930516;29;20408;-66
2023/03/22 10:33:35;;;;;;;6.38;2.53;;;;;;;;;;4915094;29;20501;-66
2023/03/22 10:36:11;;;;;;;5.63;2.30;;;;;;;;;;4910769;29;20059;-66
2023/03/22 10:38:55;;;;;;;10.10;3.45;;;;;;;;;;4960166;28;20546;-66
2023/03/22 10:41:26;;;;;;;6.90;2.28;;;;;;;;;;4924318;28;20054;-66
2023/03/22 10:44:01;;;;;;;8.43;2.97;;;;;;;;;;4972155;28;20403;-65
2023/03/22 10:46:37;;;;;;;8.25;2.25;;;;;;;;;;4924396;28;20565;-66
2023/03/22 10:49:21;;;;;;;7.05;2.80;;;;;;;;;;4972520;28;20570;-65
2023/03/22 10:52:01;;;;;;;8.50;3.05;;;;;;;;;;4971908;28;20525;-65
2023/03/22 10:54:31;;;;;;;6.93;2.70;;;;;;;;;;4977572;28;20422;-66
2023/03/22 10:57:01;;;;;;;5.65;2.95;;;;;;;;;;5010850;28;20050;-65
2023/03/22 10:59:51;;;;;;;8.00;2.63;;;;;;;;;;5010937;28;20054;-66
2023/03/22 11:02:30;;;;;;;16.98;3.15;;;;;;;;;;5010784;28;20050;-65
2023/03/22 11:05:04;;;;;;;11.95;3.67;;;;;;;;;;5010992;28;20042;-66
2023/03/22 11:07:37;;;;;;;7.28;2.92;;;;;;;;;;4995553;28;20143;-66
2023/03/22 11:10:10;;;;;;;6.72;3.55;;;;;;;;;;5010891;28;20058;-65
2023/03/22 11:13:09;;;;;;;5.68;2.85;;;;;;;;;;4994334;28;20062;-67
2023/03/22 11:15:48;;;;;;;8.50;2.83;;;;;;;;;;5010708;28;20165;-65
2023/03/22 11:18:18;;;;;;;;;;;;;;;;;;4994675;28;20397;-65
2023/03/22 11:21:03;;;;;;;6.28;2.90;;;;;;;;;;5011666;28;19921;-65
2023/03/22 11:23:37;;;;;;;5.30;2.55;;;;;;;;;;4990590;28;20058;-64
2023/03/22 11:26:13;;;;;;;7.10;2.55;;;;;;;;;;4958576;28;20177;-64
2023/03/22 11:28:49;;;;;;;9.88;2.45;;;;;;;;;;4990520;28;20510;-64
2023/03/22 11:31:20;;;;;;;7.78;2.72;;;;;;;;;;4990657;28;20050;-64
2023/03/22 11:33:57;;;;;;;8.20;2.65;;;;;;;;;;4951351;28;20124;-64
2023/03/22 11:36:28;;;;;;;8.25;2.47;;;;;;;;;;4952049;28;20059;-65
2023/03/22 11:39:06;;;;;;;6.82;2.40;;;;;;;;;;4919951;29;20510;-65
2023/03/22 11:41:38;;;;;;;8.85;2.92;;;;;;;;;;4959965;28;20518;-64
2023/03/22 11:44:16;;;;;;;7.03;3.30;;;;;;;;;;4965009;28;20458;-64
2023/03/22 11:47:00;;;;;;;10.80;3.25;;;;;;;;;;4970800;28;20047;-65
2023/03/22 11:49:39;;;;;;;7.25;2.78;;;;;;;;;;4988360;28;20053;-64
2023/03/22 11:52:15;;;;;;;9.00;2.53;;;;;;;;;;4990031;28;20057;-66
2023/03/22 11:54:46;;;;;;;7.95;2.35;;;;;;;;;;4997569;28;20065;-64
2023/03/22 11:57:22;;;;;;;11.27;3.47;;;;;;;;;;5029172;28;20460;-65
2023/03/22 11:59:57;;;;;;;5.00;2.33;;;;;;;;;;5029712;28;20061;-64
2023/03/22 12:02:34;;;;;;;6.25;2.28;;;;;;;;;;5009236;28;20084;-64
2023/03/22 12:05:17;;;;;;;8.85;3.03;;;;;;;;;;5027657;28;20060;-65
2023/03/22 12:07:53;;;;;;;9.70;2.42;;;;;;;;;;5049345;28;20052;-64
2023/03/22 12:10:30;;;;;;;5.95;2.25;;;;;;;;;;5016512;28;20060;-64
2023/03/22 12:13:15;;;;;;;9.45;2.28;;;;;;;;;;4999721;28;20056;-64
2023/03/22 12:15:51;;;;;;;7.75;2.47;;;;;;;;;;5016327;28;20505;-65
2023/03/22 12:18:27;;;;;;;6.85;2.55;;;;;;;;;;5049314;28;20045;-63
2023/03/22 12:20:59;;;;;;;8.05;2.55;;;;;;;;;;5049314;28;20523;-63
2023/03/22 12:23:35;;;;;;;10.35;5.50;;;;;;;;;;5049328;28;20060;-63
2023/03/22 12:26:17;;;;;;;12.32;3.58;;;;;;;;;;4999939;28;20053;-66
2023/03/22 12:28:58;;;;;;;9.45;2.63;;;;;;;;;;5032497;28;20547;-63
2023/03/22 12:31:41;;;;;;;5.43;2.70;;;;;;;;;;5049127;28;20504;-64
2023/03/22 12:34:20;;;;;;;6.70;3.00;;;;;;;;;;5009342;28;20046;-65
2023/03/22 12:36:54;;;;;;;10.52;2.78;;;;;;;;;;5009682;28;20061;-63
2023/03/22 12:39:39;;;;;;;5.93;2.63;;;;;;;;;;5002707;28;20060;-67
2023/03/22 12:42:29;;;;;;;11.98;3.10;;;;;;;;;;5048706;28;20060;-64
2023/03/22 12:45:10;;;;;;;5.88;2.60;;;;;;;;;;5050428;28;20184;-63
2023/03/22 12:47:50;;;;;;;9.15;3.65;;;;;;;;;;5016793;28;20045;-63
2023/03/22 12:50:37;;;;;;;6.25;2.95;;;;;;;;;;5013394;28;20501;-63
2023/03/22 12:53:17;;;;;;;6.60;2.95;;;;;;;;;;4997600;28;20073;-62
2023/03/22 12:55:49;;;;;;;7.10;2.80;;;;;;;;;;5013576;28;20061;-63
2023/03/22 12:58:22;;;;;;;5.55;2.80;;;;;;;;;;5012912;28;20473;-63
2023/03/22 13:01:10;;;;;;;8.90;2.58;;;;;;;;;;4996643;28;20061;-63
2023/03/22 13:03:50;;;;;;;5.00;2.30;;;;;;;;;;5010735;28;20105;-64
2023/03/22 13:06:44;;;;;;;10.55;3.33;;;;;;;;;;5012953;28;20435;-65
2023/03/22 13:09:16;;;;;;;9.77;2.90;;;;;;;;;;4976498;28;20054;-62
2023/03/22 13:12:05;;;;;;;6.93;2.65;;;;;;;;;;4960876;28;20069;-63
2023/03/22 13:14:59;;;;;;;17.17;9.57;;;;;;;;;;4995533;28;20054;-65
2023/03/22 13:17:28;;;;;;;8.30;2.30;;;;;;;;;;5020686;28;20050;-65
2023/03/22 13:20:24;;;;;;;6.72;2.28;;;;;;;;;;4999312;28;20540;-64
2023/03/22 13:22:54;;;;;;;6.70;2.53;;;;;;;;;;5051900;28;20048;-64
2023/03/22 13:25:28;;;;;;;4.82;2.53;;;;;;;;;;5035386;28;20060;-64
2023/03/22 13:28:02;;;;;;;5.97;2.22;;;;;;;;;;5051954;28;20036;-66
2023/03/22 13:30:46;;;;;;;6.20;1.98;;;;;;;;;;5050632;28;20056;-64
2023/03/22 13:33:23;;;;;;;5.10;2.40;;;;;;;;;;5051955;28;20049;-64
2023/03/22 13:35:57;;;;;;;5.70;1.95;;;;;;;;;;5052527;28;20059;-64
2023/03/22 13:38:32;;;;;;;4.45;2.33;;;;;;;;;;5051684;28;20045;-64
2023/03/22 13:41:26;;;;;;;3.70;2.03;;;;;;;;;;5052177;28;20057;-63
2023/03/22 13:44:02;;;;;;;8.63;2.72;;;;;;;;;;5031906;28;20046;-64
2023/03/22 13:46:37;;;;;;;9.93;2.38;;;;;;;;;;5024935;28;20054;-64
2023/03/22 13:49:43;;;;;;;3.78;2.00;;;;;;;;;;5014419;28;20744;-66
2023/03/22 13:52:35;;;;;;;5.63;1.88;;;;;;;;;;5011474;28;20064;-63
2023/03/22 13:55:35;;;;;;;7.20;2.58;;;;;;;;;;5010240;28;20418;-64
2023/03/22 13:58:09;;;;;;;5.63;2.03;;;;;;;;;;5011194;28;20057;-63
2023/03/22 14:00:46;;;;;;;3.33;1.70;;;;;;;;;;4981704;28;20555;-66
2023/03/22 14:03:26;;;;;;;4.57;2.00;;;;;;;;;;4984996;28;20094;-64
2023/03/22 14:06:10;;;;;;;5.75;2.00;;;;;;;;;;4965933;28;20063;-65
2023/03/22 14:08:43;;;;;;;4.60;1.95;;;;;;;;;;4972915;28;20722;-64
2023/03/22 14:11:49;;;;;;;6.45;1.90;;;;;;;;;;4963622;28;20039;-63
2023/03/22 14:14:23;;;;;;;6.65;2.42;;;;;;;;;;4938968;29;20060;-64
2023/03/22 14:17:00;;;;;;;3.60;1.77;;;;;;;;;;4984880;28;20554;-65
2023/03/22 14:19:33;;;;;;;5.70;1.75;;;;;;;;;;4982816;28;20102;-63
2023/03/22 14:22:09;;;;;;;5.97;1.73;;;;;;;;;;4972541;28;20059;-65
2023/03/22 14:24:37;;;;;;;4.28;2.33;;;;;;;;;;4972475;28;20057;-64
2023/03/22 14:27:06;;;;;;;7.15;1.80;;;;;;;;;;4990553;28;20061;-64
2023/03/22 14:29:44;;;;;;;6.57;2.28;;;;;;;;;;4991804;28;20050;-65
2023/03/22 14:32:22;;;;;;;3.63;1.85;;;;;;;;;;4997350;28;20049;-64
2023/03/22 14:34:58;;;;;;;5.18;2.05;;;;;;;;;;5011261;28;20048;-66
2023/03/22 14:37:27;;;;;;;4.22;1.75;;;;;;;;;;4991443;28;20517;-64
2023/03/22 14:39:55;;;;;;;4.00;1.67;;;;;;;;;;4991307;28;20047;-64
2023/03/22 14:42:31;;;;;;;6.30;2.00;;;;;;;;;;4991424;28;20055;-63
2023/03/22 14:45:04;;;;;;;5.65;1.73;;;;;;;;;;4991620;28;20406;-64
2023/03/22 14:47:42;;;;;;;4.40;1.85;;;;;;;;;;5003836;28;20469;-64
2023/03/22 14:50:16;;;;;;;12.18;1.73;;;;;;;;;;4975106;28;20069;-65
2023/03/22 14:52:50;;;;;;;4.65;1.85;;;;;;;;;;4975286;28;20061;-65
2023/03/22 14:55:26;;;;;;;4.22;1.85;;;;;;;;;;5009355;28;20064;-64
2023/03/22 14:57:59;;;;;;;3.50;1.55;;;;;;;;;;5000650;28;20536;-63
2023/03/22 15:00:28;;;;;;;3.88;1.48;;;;;;;;;;5014364;28;20057;-63
2023/03/22 15:03:21;;;;;;;3.55;2.00;;;;;;;;;;4970996;28;20059;-63
2023/03/22 15:05:50;;;;;;;5.88;1.95;;;;;;;;;;4955078;28;20503;-64
2023/03/22 15:08:18;;;;;;;4.13;1.42;;;;;;;;;;4974044;28;20158;-63
2023/03/22 15:10:54;;;;;;;3.63;1.40;;;;;;;;;;4991170;28;20050;-65
2023/03/22 15:13:25;;;;;;;2.28;1.60;;;;;;;;;;4974546;28;20859;-63
2023/03/22 15:15:54;;;;;;;3.90;1.40;;;;;;;;;;4990387;28;20054;-65
2023/03/22 15:18:27;;;;;;;4.38;1.90;;;;;;;;;;4971063;28;20054;-63
2023/03/22 15:20:55;;;;;;;8.35;2.13;;;;;;;;;;4951679;28;20066;-64
2023/03/22 15:23:37;;;;;;;2.72;1.40;;;;;;;;;;4897432;29;20055;-63
2023/03/22 15:26:42;;;;;;;4.10;1.52;;;;;;;;;;4914925;29;20441;-63
2023/03/22 15:29:27;;;;;;;5.25;1.40;;;;;;;;;;4802407;29;20082;-64
2023/03/22 15:32:03;;;;;;;4.05;1.40;;;;;;;;;;4802508;29;20457;-64
2023/03/22 15:34:32;;;;;;;1.80;1.10;;;;;;;;;;4769273;30;20078;-64
2023/03/22 15:37:31;;;;;;;5.05;1.30;;;;;;;;;;4772090;30;20059;-63
2023/03/22 15:40:35;;;;;;;3.60;1.33;;;;;;;;;;4784751;29;20397;-64
2023/03/22 15:43:23;;;;;;;3.45;1.27;;;;;;;;;;4820782;29;20061;-64
2023/03/22 15:46:20;;;;;;;3.53;1.10;;;;;;;;;;4805201;29;20065;-64
2023/03/22 15:49:37;;;;;;;4.55;1.33;;;;;;;;;;4820603;29;20062;-63
2023/03/22 15:52:19;;;;;;;3.70;1.20;;;;;;;;;;4735630;30;20068;-64